createdAt,value
2023-04-20T00:00:48.623Z,8.75
2023-04-20T00:04:05.486Z,8.73
2023-04-20T00:07:22.434Z,8.72
2023-04-20T00:10:38.957Z,8.58
2023-04-20T00:13:55.303Z,8.51
2023-04-20T00:17:12.641Z,8.47
2023-04-20T00:20:29.816Z,8.22
2023-04-20T00:23:46.647Z,8.24
2023-04-20T00:27:15.490Z,8.24
2023-04-20T00:30:32.512Z,8.24
2023-04-20T00:33:49.137Z,8.17
2023-04-20T00:37:05.443Z,8.11
2023-04-20T00:40:22.260Z,8.11
2023-04-20T00:43:38.977Z,8.09
2023-04-20T00:46:57.861Z,8.02
2023-04-20T00:50:17.532Z,8.01
2023-04-20T00:53:34.246Z,8.01
2023-04-20T00:56:50.798Z,7.97
2023-04-20T01:00:07.897Z,7.90
2023-04-20T01:03:24.394Z,7.84
2023-04-20T01:06:41.038Z,7.89
2023-04-20T01:09:58.150Z,7.92
2023-04-20T01:13:14.980Z,7.91
2023-04-20T01:16:32.058Z,7.82
2023-04-20T01:19:50.037Z,7.78
2023-04-20T01:23:06.578Z,7.78
2023-04-20T01:26:25.124Z,7.83
2023-04-20T01:29:42.518Z,7.82
2023-04-20T01:32:59.056Z,7.81
2023-04-20T01:36:17.819Z,7.74
2023-04-20T01:39:34.506Z,7.76
2023-04-20T01:42:51.108Z,7.80
2023-04-20T01:46:08.000Z,7.86
2023-04-20T01:49:24.435Z,7.89
2023-04-20T01:52:40.910Z,7.90
2023-04-20T01:55:59.815Z,7.92
2023-04-20T01:59:16.822Z,8.01
2023-04-20T02:02:33.488Z,8.02
2023-04-20T02:05:51.799Z,8.03
2023-04-20T02:09:10.052Z,8.03
2023-04-20T02:12:26.407Z,8.04
2023-04-20T02:15:42.816Z,8.05
2023-04-20T02:19:00.060Z,8.03
2023-04-20T02:22:17.085Z,8.00
2023-04-20T02:25:33.756Z,7.98
2023-04-20T02:28:50.066Z,7.95
2023-04-20T02:32:08.741Z,7.96
2023-04-20T02:35:25.453Z,8.01
2023-04-20T02:38:42.185Z,7.92
2023-04-20T02:41:58.415Z,7.85
2023-04-20T02:45:18.163Z,7.86
2023-04-20T02:48:34.802Z,7.88
2023-04-20T02:51:51.767Z,7.87
2023-04-20T02:55:09.081Z,7.89
2023-04-20T02:58:26.661Z,7.85
2023-04-20T03:02:01.261Z,7.80
2023-04-20T03:05:19.416Z,7.76
2023-04-20T03:08:36.734Z,7.73
2023-04-20T03:11:52.558Z,7.64
2023-04-20T03:15:12.199Z,7.68
2023-04-20T03:18:31.805Z,7.76
2023-04-20T03:21:48.818Z,7.79
2023-04-20T03:25:05.929Z,7.83
2023-04-20T03:28:24.193Z,7.88
2023-04-20T03:31:41.198Z,7.94
2023-04-20T03:34:58.384Z,8.02
2023-04-20T03:38:18.225Z,8.05
2023-04-20T03:41:34.635Z,8.06
2023-04-20T03:44:52.927Z,8.07
2023-04-20T03:48:10.292Z,8.04
2023-04-20T03:51:27.385Z,8.04
2023-04-20T03:54:43.708Z,8.02
2023-04-20T03:58:01.869Z,7.93
2023-04-20T04:01:18.176Z,7.93
2023-04-20T04:04:36.469Z,8.00
2023-04-20T04:07:53.236Z,8.05
2023-04-20T04:11:09.881Z,8.09
2023-04-20T04:14:26.752Z,8.13
2023-04-20T04:17:43.434Z,8.17
2023-04-20T04:21:00.235Z,8.16
2023-04-20T04:24:17.761Z,8.18
2023-04-20T04:27:36.625Z,8.25
2023-04-20T04:30:53.355Z,8.31
2023-04-20T04:34:09.938Z,8.33
2023-04-20T04:37:29.093Z,8.32
2023-04-20T04:40:47.088Z,8.36
2023-04-20T04:44:04.519Z,8.41
2023-04-20T04:47:22.951Z,8.35
2023-04-20T04:50:40.374Z,8.34
2023-04-20T04:53:56.794Z,8.37
2023-04-20T04:57:13.281Z,8.41
2023-04-20T05:00:30.701Z,8.41
2023-04-20T05:03:47.501Z,8.45
2023-04-20T05:07:04.000Z,8.39
2023-04-20T05:10:20.817Z,8.40
2023-04-20T05:13:37.242Z,8.37
2023-04-20T05:16:53.992Z,8.37
2023-04-20T05:20:12.544Z,8.49
2023-04-20T05:23:31.975Z,8.58
2023-04-20T05:26:48.173Z,8.67
2023-04-20T05:30:18.845Z,8.66
2023-04-20T05:33:22.571Z,8.70
2023-04-20T05:36:40.828Z,8.80
2023-04-20T05:39:57.171Z,8.82
2023-04-20T05:43:14.419Z,8.72
2023-04-20T05:46:45.749Z,8.78
2023-04-20T05:50:05.337Z,8.89
2023-04-20T05:53:29.415Z,8.87
2023-04-20T05:56:59.602Z,8.86
2023-04-20T06:00:15.103Z,8.98
2023-04-20T06:03:31.893Z,9.06
2023-04-20T06:06:51.910Z,9.08
2023-04-20T06:10:09.348Z,9.14
2023-04-20T06:13:27.259Z,9.22
2023-04-20T06:16:44.174Z,9.24
2023-04-20T06:20:00.988Z,9.30
2023-04-20T06:23:18.240Z,9.29
2023-04-20T06:26:36.078Z,9.38
2023-04-20T06:29:53.075Z,9.48
2023-04-20T06:33:12.277Z,9.52
2023-04-20T06:36:28.760Z,9.63
2023-04-20T06:39:45.097Z,9.71
2023-04-20T06:43:01.478Z,9.87
2023-04-20T06:46:17.854Z,10.13
2023-04-20T06:49:34.337Z,10.59
2023-04-20T06:52:50.726Z,10.95
2023-04-20T06:56:07.839Z,10.96
2023-04-20T06:59:24.496Z,10.92
2023-04-20T07:02:52.860Z,11.04
2023-04-20T07:06:11.279Z,11.15
2023-04-20T07:09:28.414Z,11.27
2023-04-20T07:12:46.322Z,11.27
2023-04-20T07:16:02.791Z,11.30
2023-04-20T07:19:19.249Z,11.33
2023-04-20T07:22:35.873Z,11.51
2023-04-20T07:25:52.187Z,11.39
2023-04-20T07:29:08.562Z,11.69
2023-04-20T07:32:25.126Z,12.06
2023-04-20T07:35:41.735Z,12.17
2023-04-20T07:38:58.449Z,12.11
2023-04-20T07:42:15.087Z,12.08
2023-04-20T07:45:32.616Z,12.20
2023-04-20T07:48:56.520Z,12.30
2023-04-20T07:52:17.005Z,12.23
2023-04-20T07:55:32.029Z,12.31
2023-04-20T07:58:48.562Z,12.33
2023-04-20T08:02:09.258Z,12.34
2023-04-20T08:05:26.110Z,12.32
2023-04-20T08:08:50.733Z,12.27
2023-04-20T08:12:07.296Z,12.06
2023-04-20T08:15:24.263Z,11.92
2023-04-20T08:18:42.485Z,11.79
2023-04-20T08:22:03.490Z,11.73
2023-04-20T08:25:38.756Z,11.87
2023-04-20T08:29:07.386Z,11.97
2023-04-20T08:32:25.023Z,12.00
2023-04-20T08:35:41.609Z,12.04
2023-04-20T08:39:06.505Z,12.18
2023-04-20T08:42:23.086Z,12.23
2023-04-20T08:45:39.814Z,12.23
2023-04-20T08:48:57.929Z,12.29
2023-04-20T08:52:14.494Z,12.33
2023-04-20T08:55:31.242Z,12.15
2023-04-20T08:58:48.251Z,12.23
2023-04-20T09:02:06.408Z,12.05
2023-04-20T09:05:24.729Z,11.95
2023-04-20T09:08:49.818Z,11.82
2023-04-20T09:12:13.360Z,12.12
2023-04-20T09:15:37.846Z,12.15
2023-04-20T09:19:03.613Z,12.38
2023-04-20T09:22:21.152Z,12.68
2023-04-20T09:25:41.788Z,12.83
2023-04-20T09:28:58.700Z,12.95
2023-04-20T09:32:17.091Z,13.06
2023-04-20T09:35:34.545Z,13.12
2023-04-20T09:38:52.502Z,13.19
2023-04-20T09:42:12.448Z,13.30
2023-04-20T09:45:29.478Z,13.17
2023-04-20T09:48:47.384Z,13.13
2023-04-20T09:52:06.188Z,13.29
2023-04-20T09:55:23.125Z,13.54
2023-04-20T09:58:42.786Z,13.40
2023-04-20T10:01:59.521Z,13.42
2023-04-20T10:05:17.648Z,13.42
2023-04-20T10:08:36.606Z,13.40
2023-04-20T10:11:54.620Z,13.36
2023-04-20T10:15:11.732Z,13.34
2023-04-20T10:18:33.099Z,13.32
2023-04-20T10:21:57.814Z,13.32
2023-04-20T10:25:24.997Z,13.37
2023-04-20T10:28:51.585Z,13.39
2023-04-20T10:32:08.572Z,13.49
2023-04-20T10:35:25.040Z,13.55
2023-04-20T10:38:43.293Z,13.59
2023-04-20T10:42:07.001Z,13.55
2023-04-20T10:45:23.586Z,13.49
2023-04-20T10:48:40.269Z,13.45
2023-04-20T10:52:01.645Z,13.43
2023-04-20T10:59:19.514Z,13.40
2023-04-20T11:02:37.936Z,13.38
2023-04-20T11:05:58.453Z,13.48
2023-04-20T11:09:27.660Z,13.52
2023-04-20T11:12:48.636Z,13.68
2023-04-20T11:16:05.491Z,13.95
2023-04-20T11:19:31.313Z,14.10
2023-04-20T11:22:49.856Z,14.19
2023-04-20T11:26:07.947Z,14.09
2023-04-20T11:29:35.875Z,14.21
2023-04-20T11:32:56.107Z,14.28
2023-04-20T11:36:12.949Z,14.31
2023-04-20T11:39:35.327Z,14.57
2023-04-20T11:42:52.258Z,14.54
2023-04-20T11:46:12.658Z,14.43
2023-04-20T11:49:32.712Z,14.47
2023-04-20T11:52:49.156Z,14.56
2023-04-20T11:56:05.690Z,14.66
2023-04-20T11:59:23.631Z,14.67
2023-04-20T12:02:40.264Z,14.75
2023-04-20T12:05:56.859Z,14.70
2023-04-20T12:09:14.371Z,14.68
2023-04-20T12:12:31.271Z,14.64
2023-04-20T12:15:50.176Z,14.65
2023-04-20T12:19:37.728Z,14.50
2023-04-20T12:23:02.516Z,14.52
2023-04-20T12:26:29.205Z,14.50
2023-04-20T12:29:44.108Z,14.56
2023-04-20T12:33:04.299Z,14.40
2023-04-20T12:36:26.773Z,14.41
2023-04-20T12:39:43.384Z,14.42
2023-04-20T12:43:00.057Z,14.58
2023-04-20T12:46:16.951Z,14.68
2023-04-20T12:49:52.050Z,14.87
2023-04-20T12:53:15.012Z,14.87
2023-04-20T12:56:44.839Z,14.92
2023-04-20T13:00:03.791Z,14.93
2023-04-20T13:03:23.440Z,14.80
2023-04-20T13:06:40.337Z,14.80
2023-04-20T13:09:59.470Z,14.82
2023-04-20T13:13:18.762Z,14.80
2023-04-20T13:16:35.507Z,14.81
2023-04-20T13:20:04.763Z,14.81
2023-04-20T13:23:27.460Z,14.76
2023-04-20T13:26:44.024Z,14.68
2023-04-20T13:30:00.444Z,14.67
2023-04-20T13:33:19.764Z,14.63
2023-04-20T13:36:36.280Z,14.54
2023-04-20T13:39:53.399Z,14.59
2023-04-20T13:43:09.891Z,14.64
2023-04-20T13:46:26.670Z,14.66
2023-04-20T13:49:43.124Z,14.69
2023-04-20T13:53:02.476Z,14.77
2023-04-20T13:56:20.569Z,14.81
2023-04-20T13:59:50.493Z,14.83
2023-04-20T14:03:14.472Z,14.86
2023-04-20T14:06:32.556Z,14.98
2023-04-20T14:09:51.848Z,14.98
2023-04-20T14:13:09.906Z,15.00
2023-04-20T14:16:28.278Z,15.02
2023-04-20T14:19:44.825Z,15.04
2023-04-20T14:23:01.351Z,14.98
2023-04-20T14:26:29.362Z,14.97
2023-04-20T14:29:41.352Z,14.91
2023-04-20T14:33:07.476Z,14.94
2023-04-20T14:36:27.518Z,14.91
2023-04-20T14:39:45.310Z,14.87
2023-04-20T14:43:01.638Z,14.90
2023-04-20T14:46:18.121Z,14.88
2023-04-20T14:49:34.837Z,14.87
2023-04-20T14:52:51.359Z,14.87
2023-04-20T14:56:10.881Z,14.83
2023-04-20T14:59:28.004Z,14.86
2023-04-20T15:02:45.083Z,14.92
2023-04-20T15:06:05.209Z,14.95
2023-04-20T15:09:26.654Z,14.94
2023-04-20T15:12:43.282Z,14.98
2023-04-20T15:15:59.931Z,14.95
2023-04-20T15:19:16.606Z,14.95
2023-04-20T15:22:33.323Z,14.94
2023-04-20T15:25:53.198Z,14.96
2023-04-20T15:29:20.625Z,14.94
2023-04-20T15:32:40.085Z,14.93
2023-04-20T15:39:42.622Z,14.95
2023-04-20T15:42:59.662Z,14.91
2023-04-20T15:46:16.226Z,14.93
2023-04-20T15:49:33.040Z,14.93
2023-04-20T15:52:51.744Z,14.88
2023-04-20T15:56:08.775Z,14.82
2023-04-20T15:59:26.403Z,14.76
2023-04-20T16:02:44.234Z,14.72
2023-04-20T16:06:01.123Z,14.68
2023-04-20T16:09:23.925Z,14.63
2023-04-20T16:12:42.079Z,14.53
2023-04-20T16:16:02.106Z,14.48
2023-04-20T16:19:18.802Z,14.46
2023-04-20T16:22:36.551Z,14.48
2023-04-20T16:29:33.252Z,14.44
2023-04-20T16:32:49.830Z,14.42
2023-04-20T16:36:07.127Z,14.41
2023-04-20T16:39:23.673Z,14.34
2023-04-20T16:42:40.040Z,14.28
2023-04-20T16:45:56.652Z,14.23
2023-04-20T16:49:16.730Z,14.24
2023-04-20T16:52:33.307Z,14.18
2023-04-20T16:55:49.647Z,14.15
2023-04-20T16:59:06.089Z,14.12
2023-04-20T17:02:22.907Z,14.10
2023-04-20T17:05:42.231Z,14.04
2023-04-20T17:09:01.834Z,14.03
2023-04-20T17:12:18.286Z,14.00
2023-04-20T17:15:35.104Z,14.00
2023-04-20T17:18:52.919Z,13.95
2023-04-20T17:22:09.553Z,13.88
2023-04-20T17:25:26.076Z,13.80
2023-04-20T17:28:42.418Z,13.75
2023-04-20T17:32:02.722Z,13.63
2023-04-20T17:35:23.942Z,13.55
2023-04-20T17:38:46.260Z,13.46
2023-04-20T17:42:02.913Z,13.33
2023-04-20T17:45:20.271Z,13.25
2023-04-20T17:48:36.817Z,13.17
2023-04-20T17:51:53.045Z,13.04
2023-04-20T17:55:09.981Z,12.90
2023-04-20T17:58:26.604Z,12.87
2023-04-20T18:01:43.149Z,12.81
2023-04-20T18:05:00.442Z,12.73
2023-04-20T18:08:18.520Z,12.65
2023-04-20T18:11:35.192Z,12.53
2023-04-20T18:14:51.770Z,12.54
2023-04-20T18:18:08.479Z,12.46
2023-04-20T18:21:25.146Z,12.48
2023-04-20T18:24:47.493Z,12.48
2023-04-20T18:28:03.971Z,12.37
2023-04-20T18:31:20.635Z,12.37
2023-04-20T18:34:37.866Z,12.37
2023-04-20T18:37:56.636Z,12.32
2023-04-20T18:41:13.165Z,12.28
2023-04-20T18:44:30.158Z,12.28
2023-04-20T18:47:46.924Z,12.30
2023-04-20T18:51:03.600Z,12.24
2023-04-20T18:54:20.718Z,12.22
2023-04-20T18:57:37.425Z,12.08
2023-04-20T19:00:56.801Z,12.03
2023-04-20T19:04:14.698Z,12.01
2023-04-20T19:07:31.420Z,11.92
2023-04-20T19:10:48.176Z,11.87
2023-04-20T19:14:04.979Z,11.74
2023-04-20T19:17:21.501Z,11.76
2023-04-20T19:20:38.095Z,11.68
2023-04-20T19:23:57.723Z,11.60
2023-04-20T19:27:14.366Z,11.46
2023-04-20T19:30:31.217Z,11.35
2023-04-20T19:33:48.446Z,11.24
2023-04-20T19:37:05.626Z,11.21
2023-04-20T19:40:24.453Z,11.13
2023-04-20T19:43:41.790Z,11.11
2023-04-20T19:46:58.440Z,11.02
2023-04-20T19:50:16.800Z,11.00
2023-04-20T19:53:33.738Z,10.90
2023-04-20T19:56:51.517Z,10.93
2023-04-20T20:00:08.456Z,10.92
2023-04-20T20:03:28.396Z,10.88
2023-04-20T20:06:47.540Z,10.86
2023-04-20T20:10:05.168Z,10.80
2023-04-20T20:13:23.878Z,10.75
2023-04-20T20:16:40.306Z,10.74
2023-04-20T20:19:57.122Z,10.67
2023-04-20T20:23:13.987Z,10.61
2023-04-20T20:26:30.532Z,10.60
2023-04-20T20:29:47.169Z,10.56
2023-04-20T20:33:04.723Z,10.43
2023-04-20T20:36:27.185Z,10.45
2023-04-20T20:39:44.640Z,10.39
2023-04-20T20:43:01.828Z,10.38
2023-04-20T20:46:18.960Z,10.29
2023-04-20T20:49:35.745Z,10.10
2023-04-20T20:52:52.358Z,10.12
2023-04-20T20:56:09.037Z,10.10
2023-04-20T20:59:25.580Z,9.88
2023-04-20T21:02:42.891Z,9.84
2023-04-20T21:05:59.457Z,9.73
2023-04-20T21:09:16.538Z,9.63
2023-04-20T21:12:33.651Z,9.67
2023-04-20T21:15:50.379Z,9.58
2023-04-20T21:19:07.336Z,9.51
2023-04-20T21:22:24.154Z,9.45
2023-04-20T21:25:46.190Z,9.43
2023-04-20T21:29:14.220Z,9.36
2023-04-20T21:32:32.897Z,9.30
2023-04-20T21:35:51.506Z,9.27
2023-04-20T21:39:09.143Z,9.16
2023-04-20T21:42:26.444Z,9.07
2023-04-20T21:45:44.398Z,9.07
2023-04-20T21:49:10.304Z,9.00
2023-04-20T21:52:26.970Z,8.89
2023-04-20T21:55:44.202Z,8.87
2023-04-20T21:59:01.432Z,8.85
2023-04-20T22:02:18.133Z,8.85
2023-04-20T22:05:35.124Z,8.76
2023-04-20T22:08:52.212Z,8.76
2023-04-20T22:12:10.010Z,8.64
2023-04-20T22:15:27.121Z,8.59
2023-04-20T22:18:43.773Z,8.53
2023-04-20T22:22:00.406Z,8.55
2023-04-20T22:25:18.435Z,8.46
2023-04-20T22:28:35.091Z,8.48
2023-04-20T22:31:54.120Z,8.37
2023-04-20T22:35:11.714Z,8.30
2023-04-20T22:38:28.487Z,8.21
2023-04-20T22:41:45.458Z,8.18
2023-04-20T22:45:02.658Z,8.20
2023-04-20T22:48:19.647Z,8.16
2023-04-20T22:51:37.064Z,8.16
2023-04-20T22:54:53.569Z,8.21
2023-04-20T22:58:10.091Z,8.21
2023-04-20T23:01:26.616Z,8.09
2023-04-20T23:04:44.488Z,8.12
2023-04-20T23:08:01.333Z,8.19
2023-04-20T23:11:17.763Z,8.29
2023-04-20T23:14:34.526Z,8.30
2023-04-20T23:17:51.669Z,8.40
2023-04-20T23:21:08.468Z,8.45
2023-04-20T23:24:24.939Z,8.41
2023-04-20T23:27:41.395Z,8.41
2023-04-20T23:30:57.981Z,8.39
2023-04-20T23:34:14.437Z,8.46
2023-04-20T23:37:30.932Z,8.47
2023-04-20T23:40:48.479Z,8.41
2023-04-20T23:44:05.062Z,8.57
2023-04-20T23:47:21.581Z,8.56
2023-04-20T23:50:38.337Z,8.58
2023-04-20T23:53:54.978Z,8.63
2023-04-20T23:57:11.535Z,8.66
